createdAt,value
2022-11-13T00:01:26.591Z,26.20
2022-11-13T00:03:55.334Z,28.23
2022-11-13T00:06:25.718Z,30.30
2022-11-13T00:08:56.168Z,28.20
2022-11-13T00:11:24.877Z,30.80
2022-11-13T00:13:53.629Z,30.00
2022-11-13T00:16:23.513Z,29.67
2022-11-13T00:18:52.162Z,30.00
2022-11-13T00:21:22.657Z,29.30
2022-11-13T00:23:53.570Z,29.87
2022-11-13T00:26:23.703Z,28.57
2022-11-13T00:28:55.667Z,32.07
2022-11-13T00:31:24.399Z,29.20
2022-11-13T00:36:42.324Z,26.70
2022-11-13T00:39:12.539Z,25.83
2022-11-13T00:41:41.228Z,23.53
2022-11-13T00:44:10.017Z,18.27
2022-11-13T00:46:38.748Z,22.37
2022-11-13T00:49:07.485Z,21.90
2022-11-13T00:51:36.081Z,23.53
2022-11-13T00:54:04.899Z,22.70
2022-11-13T00:56:34.952Z,21.40
2022-11-13T00:59:03.674Z,18.30
2022-11-13T01:01:32.657Z,23.17
2022-11-13T01:04:01.486Z,20.77
2022-11-13T01:06:30.802Z,19.33
2022-11-13T01:09:01.113Z,17.80
2022-11-13T01:11:31.351Z,14.03
2022-11-13T01:14:01.478Z,16.80
2022-11-13T01:16:30.457Z,17.87
2022-11-13T01:18:59.255Z,17.63
2022-11-13T01:21:29.171Z,18.47
2022-11-13T01:23:58.015Z,18.30
2022-11-13T01:26:28.920Z,18.17
2022-11-13T01:28:59.210Z,17.37
2022-11-13T01:31:31.297Z,19.20
2022-11-13T01:34:00.181Z,18.53
2022-11-13T01:36:30.832Z,16.80
2022-11-13T01:38:59.711Z,16.30
2022-11-13T01:41:30.278Z,15.90
2022-11-13T01:44:00.980Z,17.43
2022-11-13T01:46:33.435Z,16.13
2022-11-13T01:49:12.066Z,15.70
2022-11-13T01:51:43.256Z,15.37
2022-11-13T01:54:16.057Z,17.83
2022-11-13T01:56:46.010Z,15.97
2022-11-13T01:59:18.911Z,16.13
2022-11-13T02:01:49.190Z,16.77
2022-11-13T02:04:17.862Z,16.20
2022-11-13T02:06:50.784Z,18.00
2022-11-13T02:09:22.554Z,17.53
2022-11-13T02:11:51.739Z,17.00
2022-11-13T02:14:22.464Z,15.80
2022-11-13T02:16:56.930Z,18.00
2022-11-13T02:19:31.136Z,19.70
2022-11-13T02:22:08.386Z,18.47
2022-11-13T02:24:44.991Z,21.03
2022-11-13T02:27:21.676Z,19.20
2022-11-13T02:29:50.324Z,21.10
2022-11-13T02:32:19.069Z,19.40
2022-11-13T02:34:47.681Z,21.70
2022-11-13T02:37:16.434Z,20.00
2022-11-13T02:39:46.583Z,19.43
2022-11-13T02:42:15.348Z,21.10
2022-11-13T02:44:44.056Z,22.73
2022-11-13T02:47:12.680Z,21.30
2022-11-13T02:49:41.352Z,23.47
2022-11-13T02:52:09.950Z,24.07
2022-11-13T02:54:38.623Z,22.77
2022-11-13T02:57:08.698Z,22.97
2022-11-13T02:59:37.412Z,22.40
2022-11-13T03:02:06.124Z,21.67
2022-11-13T03:05:05.244Z,22.43
2022-11-13T03:07:23.638Z,21.40
2022-11-13T03:09:52.310Z,22.50
2022-11-13T03:12:22.910Z,21.70
2022-11-13T03:14:51.631Z,21.60
2022-11-13T03:17:20.312Z,21.80
2022-11-13T03:19:49.013Z,20.73
2022-11-13T03:22:17.789Z,21.93
2022-11-13T03:24:46.546Z,20.80
2022-11-13T03:27:15.256Z,21.57
2022-11-13T03:29:45.489Z,21.67
2022-11-13T03:32:14.180Z,20.70
2022-11-13T03:34:42.826Z,21.50
2022-11-13T03:37:11.450Z,22.20
2022-11-13T03:39:40.111Z,21.40
2022-11-13T03:42:08.983Z,22.53
2022-11-13T03:44:37.601Z,24.77
2022-11-13T03:47:07.742Z,25.83
2022-11-13T03:49:36.446Z,25.03
2022-11-13T03:52:05.828Z,24.60
2022-11-13T03:54:34.634Z,25.77
2022-11-13T03:57:03.370Z,24.90
2022-11-13T03:59:32.108Z,26.30
2022-11-13T04:02:00.765Z,25.37
2022-11-13T04:04:30.909Z,24.63
2022-11-13T04:06:59.567Z,25.90
2022-11-13T04:09:28.323Z,26.60
2022-11-13T04:11:56.992Z,25.80
2022-11-13T04:14:26.683Z,28.10
2022-11-13T04:16:55.343Z,26.90
2022-11-13T04:19:24.039Z,27.20
2022-11-13T04:21:54.105Z,24.70
2022-11-13T04:24:22.808Z,25.60
2022-11-13T04:26:51.514Z,25.80
2022-11-13T04:29:20.154Z,25.50
2022-11-13T04:31:48.988Z,25.53
2022-11-13T04:34:17.610Z,25.10
2022-11-13T04:36:46.331Z,24.67
2022-11-13T04:39:16.432Z,28.43
2022-11-13T04:42:02.326Z,27.23
2022-11-13T04:44:31.001Z,25.87
2022-11-13T04:46:59.659Z,24.90
2022-11-13T04:49:28.361Z,23.93
2022-11-13T04:51:57.008Z,23.00
2022-11-13T04:54:28.948Z,24.17
2022-11-13T04:56:58.044Z,24.23
2022-11-13T04:59:26.776Z,26.93
2022-11-13T05:01:55.945Z,26.17
2022-11-13T05:04:24.924Z,26.27
2022-11-13T05:06:53.609Z,26.60
2022-11-13T05:09:22.278Z,25.43
2022-11-13T05:11:52.351Z,26.50
2022-11-13T05:14:21.029Z,26.10
2022-11-13T05:16:50.372Z,25.10
2022-11-13T05:19:19.277Z,24.60
2022-11-13T05:21:47.913Z,25.17
2022-11-13T05:24:16.533Z,23.10
2022-11-13T05:26:46.490Z,23.37
2022-11-13T05:29:16.597Z,25.07
2022-11-13T05:31:45.685Z,23.90
2022-11-13T05:34:14.449Z,22.33
2022-11-13T05:36:43.109Z,25.17
2022-11-13T05:39:12.679Z,23.43
2022-11-13T05:41:41.709Z,24.93
2022-11-13T05:44:10.501Z,22.67
2022-11-13T05:46:40.942Z,23.57
2022-11-13T05:49:11.081Z,23.80
2022-11-13T05:51:39.731Z,22.87
2022-11-13T05:54:08.428Z,25.37
2022-11-13T05:56:38.372Z,25.43
2022-11-13T05:59:07.249Z,24.27
2022-11-13T06:01:38.329Z,24.40
2022-11-13T06:04:09.454Z,25.27
2022-11-13T06:06:38.130Z,23.20
2022-11-13T06:09:07.816Z,25.90
2022-11-13T06:11:36.448Z,24.13
2022-11-13T06:14:05.205Z,22.60
2022-11-13T06:16:37.167Z,23.53
2022-11-13T06:19:09.161Z,23.30
2022-11-13T06:21:41.325Z,24.83
2022-11-13T06:24:12.623Z,24.57
2022-11-13T06:26:41.472Z,24.60
2022-11-13T06:29:12.864Z,23.33
2022-11-13T06:31:41.950Z,24.17
2022-11-13T06:34:12.070Z,25.27
2022-11-13T06:36:40.730Z,25.93
2022-11-13T06:39:10.876Z,24.93
2022-11-13T06:41:40.247Z,25.87
2022-11-13T06:44:09.086Z,27.40
2022-11-13T06:46:37.731Z,27.77
2022-11-13T06:49:06.378Z,29.40
2022-11-13T06:51:36.471Z,27.97
2022-11-13T06:54:05.259Z,27.67
2022-11-13T06:56:33.892Z,28.90
2022-11-13T06:59:06.279Z,30.00
2022-11-13T07:01:36.900Z,30.23
2022-11-13T07:04:06.640Z,34.30
2022-11-13T07:06:40.351Z,32.43
2022-11-13T07:09:09.395Z,34.50
2022-11-13T07:11:38.034Z,34.50
2022-11-13T07:14:07.271Z,33.67
2022-11-13T07:16:56.653Z,32.40
2022-11-13T07:19:24.643Z,34.10
2022-11-13T07:21:54.742Z,34.13
2022-11-13T07:24:23.393Z,32.03
2022-11-13T07:26:52.074Z,33.13
2022-11-13T07:29:20.753Z,35.10
2022-11-13T07:31:49.476Z,33.27
2022-11-13T07:34:18.105Z,33.97
2022-11-13T07:36:46.882Z,34.90
2022-11-13T07:39:17.029Z,33.27
2022-11-13T07:41:45.734Z,33.33
2022-11-13T07:44:27.197Z,32.47
2022-11-13T07:47:03.196Z,29.57
2022-11-13T07:49:31.935Z,30.70
2022-11-13T07:52:00.656Z,31.97
2022-11-13T07:54:30.785Z,30.07
2022-11-13T07:56:59.497Z,31.23
2022-11-13T07:59:28.195Z,32.40
2022-11-13T08:01:56.903Z,32.37
2022-11-13T08:04:25.980Z,31.97
2022-11-13T08:06:54.712Z,30.30
2022-11-13T08:09:23.455Z,32.00
2022-11-13T08:11:53.583Z,30.07
2022-11-13T08:14:22.310Z,28.90
2022-11-13T08:16:51.031Z,29.00
2022-11-13T08:19:19.760Z,29.57
2022-11-13T08:21:48.465Z,29.67
2022-11-13T08:24:17.208Z,27.10
2022-11-13T08:26:45.888Z,28.50
2022-11-13T08:29:15.927Z,28.83
2022-11-13T08:31:44.676Z,27.70
2022-11-13T08:34:13.365Z,31.30
2022-11-13T08:36:42.097Z,32.47
2022-11-13T08:39:11.033Z,30.10
2022-11-13T08:41:39.828Z,31.70
2022-11-13T08:44:09.041Z,31.63
2022-11-13T08:46:39.725Z,32.43
2022-11-13T08:49:08.782Z,32.83
2022-11-13T08:51:37.487Z,29.90
2022-11-13T08:54:06.497Z,32.43
2022-11-13T08:56:35.239Z,30.23
2022-11-13T08:59:03.924Z,31.70
2022-11-13T09:01:32.621Z,31.93
2022-11-13T09:04:03.105Z,32.77
2022-11-13T09:06:31.864Z,33.40
2022-11-13T09:09:00.790Z,32.27
2022-11-13T09:11:29.586Z,32.87
2022-11-13T09:13:58.274Z,32.43
2022-11-13T09:16:26.931Z,31.90
2022-11-13T09:18:55.622Z,32.70
2022-11-13T09:21:25.768Z,31.50
2022-11-13T09:23:54.579Z,29.50
2022-11-13T09:26:23.293Z,30.37
2022-11-13T09:28:52.040Z,31.63
2022-11-13T09:31:20.819Z,32.07
2022-11-13T09:33:49.530Z,33.00
2022-11-13T09:36:18.429Z,31.83
2022-11-13T09:38:48.614Z,33.67
2022-11-13T09:41:22.167Z,31.77
2022-11-13T09:43:59.302Z,31.63
2022-11-13T09:46:39.479Z,30.60
2022-11-13T09:49:17.471Z,33.90
2022-11-13T09:51:52.886Z,32.03
2022-11-13T09:54:24.323Z,32.47
2022-11-13T09:56:59.085Z,33.63
2022-11-13T09:59:33.754Z,36.03
2022-11-13T10:02:20.825Z,34.20
2022-11-13T10:04:59.226Z,35.00
2022-11-13T10:07:38.169Z,33.23
2022-11-13T10:10:39.637Z,37.17
2022-11-13T10:13:14.619Z,35.40
2022-11-13T10:15:46.435Z,37.43
2022-11-13T10:18:18.710Z,38.10
2022-11-13T10:20:51.646Z,38.23
2022-11-13T10:23:22.795Z,36.47
2022-11-13T10:25:54.577Z,36.17
2022-11-13T10:28:49.478Z,36.77
2022-11-13T10:31:15.613Z,37.73
2022-11-13T10:33:44.484Z,38.57
2022-11-13T10:36:22.547Z,37.37
2022-11-13T10:38:59.980Z,40.17
2022-11-13T10:41:30.383Z,40.40
2022-11-13T10:44:19.948Z,41.30
2022-11-13T10:46:50.038Z,40.10
2022-11-13T10:49:22.317Z,40.07
2022-11-13T10:51:58.241Z,37.73
2022-11-13T10:54:29.278Z,39.57
2022-11-13T10:57:01.522Z,39.17
2022-11-13T10:59:40.885Z,40.00
2022-11-13T11:02:20.457Z,38.07
2022-11-13T11:04:49.411Z,39.43
2022-11-13T11:07:21.417Z,37.40
2022-11-13T11:09:52.390Z,36.07
2022-11-13T11:12:30.608Z,38.60
2022-11-13T11:15:21.544Z,36.53
2022-11-13T11:17:54.114Z,35.80
2022-11-13T11:20:28.324Z,36.33
2022-11-13T11:23:08.189Z,36.50
2022-11-13T11:25:40.829Z,38.17
2022-11-13T11:28:17.277Z,35.90
2022-11-13T11:30:52.563Z,38.07
2022-11-13T11:33:30.837Z,37.10
2022-11-13T11:36:08.609Z,35.67
2022-11-13T11:38:43.978Z,40.63
2022-11-13T11:41:17.089Z,36.03
2022-11-13T11:43:50.905Z,36.37
2022-11-13T11:46:26.094Z,35.67
2022-11-13T11:48:54.930Z,35.70
2022-11-13T11:51:27.764Z,34.57
2022-11-13T11:54:07.618Z,35.63
2022-11-13T11:56:38.666Z,36.73
2022-11-13T11:59:21.405Z,35.80
2022-11-13T12:02:16.736Z,35.87
2022-11-13T12:05:00.791Z,35.80
2022-11-13T12:07:39.427Z,34.90
2022-11-13T12:10:20.587Z,34.67
2022-11-13T12:13:05.551Z,37.50
2022-11-13T12:15:46.952Z,35.33
2022-11-13T12:18:24.657Z,34.60
2022-11-13T12:21:12.066Z,37.73
2022-11-13T12:24:00.274Z,35.83
2022-11-13T12:26:34.480Z,35.80
2022-11-13T12:29:20.800Z,35.83
2022-11-13T12:32:00.605Z,37.87
2022-11-13T12:34:34.562Z,36.57
2022-11-13T12:37:14.424Z,39.10
2022-11-13T12:39:52.360Z,38.60
2022-11-13T12:42:29.882Z,36.10
2022-11-13T12:45:07.354Z,39.20
2022-11-13T12:47:38.427Z,35.70
2022-11-13T12:50:28.742Z,40.10
2022-11-13T12:53:02.782Z,40.40
2022-11-13T12:55:32.968Z,39.40
2022-11-13T12:58:10.821Z,38.33
2022-11-13T13:00:42.866Z,38.40
2022-11-13T13:03:48.400Z,40.27
2022-11-13T13:06:36.357Z,37.20
2022-11-13T13:09:18.414Z,38.83
2022-11-13T13:11:52.716Z,39.77
2022-11-13T13:14:37.402Z,38.93
2022-11-13T13:17:18.643Z,37.67
2022-11-13T13:20:00.347Z,38.87
2022-11-13T13:22:31.705Z,38.33
2022-11-13T13:25:02.738Z,38.20
2022-11-13T13:27:35.759Z,39.20
2022-11-13T13:30:18.417Z,40.30
2022-11-13T13:32:56.610Z,42.97
2022-11-13T13:35:32.484Z,39.33
2022-11-13T13:38:07.329Z,41.33
2022-11-13T13:40:42.751Z,39.80
2022-11-13T13:43:29.847Z,38.43
2022-11-13T13:46:07.354Z,38.93
2022-11-13T13:48:40.924Z,39.23
2022-11-13T13:51:19.378Z,39.60
2022-11-13T13:53:49.820Z,38.67
2022-11-13T13:56:20.449Z,40.77
2022-11-13T13:58:50.042Z,38.80
2022-11-13T14:01:29.436Z,37.97
2022-11-13T14:04:14.165Z,39.30
2022-11-13T14:06:52.501Z,37.53
2022-11-13T14:09:24.046Z,37.50
2022-11-13T14:12:00.666Z,38.50
2022-11-13T14:14:30.885Z,36.63
2022-11-13T14:17:01.959Z,34.67
2022-11-13T14:19:30.680Z,38.37
2022-11-13T14:22:03.612Z,40.03
2022-11-13T14:24:34.992Z,38.70
2022-11-13T14:27:08.966Z,37.90
2022-11-13T14:29:41.337Z,40.17
2022-11-13T14:32:15.036Z,36.90
2022-11-13T14:34:46.121Z,37.00
2022-11-13T14:37:24.609Z,37.33
2022-11-13T14:39:55.982Z,36.07
2022-11-13T14:42:27.977Z,35.60
2022-11-13T14:45:14.733Z,35.70
2022-11-13T14:47:44.543Z,37.07
2022-11-13T14:50:24.768Z,40.10
2022-11-13T14:53:04.482Z,35.93
2022-11-13T14:55:34.744Z,37.30
2022-11-13T14:58:04.060Z,37.10
2022-11-13T15:00:35.132Z,37.23
2022-11-13T15:03:06.513Z,41.10
2022-11-13T15:05:35.744Z,37.43
2022-11-13T15:08:06.097Z,38.60
2022-11-13T15:10:34.858Z,41.47
2022-11-13T15:13:03.831Z,40.07
2022-11-13T15:15:32.891Z,38.90
2022-11-13T15:18:04.313Z,40.47
2022-11-13T15:20:33.995Z,40.77
2022-11-13T15:23:03.324Z,39.80
2022-11-13T15:25:33.980Z,40.07
2022-11-13T15:28:02.973Z,40.37
2022-11-13T15:30:31.786Z,38.57
2022-11-13T15:33:02.085Z,42.00
2022-11-13T15:35:33.526Z,42.43
2022-11-13T15:38:02.265Z,42.20
2022-11-13T15:40:32.441Z,42.10
2022-11-13T15:43:01.663Z,45.87
2022-11-13T15:45:30.514Z,52.27
2022-11-13T15:48:02.365Z,42.47
2022-11-13T15:50:31.370Z,41.80
2022-11-13T15:53:05.017Z,43.40
2022-11-13T15:55:36.157Z,43.37
2022-11-13T15:58:05.561Z,43.70
2022-11-13T16:00:34.697Z,45.47
2022-11-13T16:03:10.832Z,45.80
2022-11-13T16:05:40.452Z,41.17
2022-11-13T16:08:13.603Z,42.23
2022-11-13T16:10:46.746Z,41.80
2022-11-13T16:13:15.534Z,44.70
2022-11-13T16:15:47.440Z,41.57
2022-11-13T16:18:23.565Z,44.90
2022-11-13T16:20:52.515Z,47.57
2022-11-13T16:23:22.453Z,43.07
2022-11-13T16:25:55.978Z,42.23
2022-11-13T16:28:25.386Z,44.80
2022-11-13T16:30:54.169Z,45.87
2022-11-13T16:33:22.974Z,44.67
2022-11-13T16:35:51.817Z,44.90
2022-11-13T16:38:20.573Z,40.40
2022-11-13T16:40:49.679Z,42.27
2022-11-13T16:43:20.236Z,44.77
2022-11-13T16:45:49.459Z,44.83
2022-11-13T16:48:18.696Z,45.40
2022-11-13T16:50:47.928Z,46.30
2022-11-13T16:53:17.675Z,44.30
2022-11-13T16:55:47.409Z,42.27
2022-11-13T16:58:17.021Z,46.37
2022-11-13T17:00:47.735Z,48.30
2022-11-13T17:03:16.975Z,45.10
2022-11-13T17:05:46.160Z,45.80
2022-11-13T17:08:15.248Z,48.10
2022-11-13T17:10:44.025Z,47.40
2022-11-13T17:13:13.500Z,53.57
2022-11-13T17:15:42.648Z,51.97
2022-11-13T17:18:13.179Z,48.80
2022-11-13T17:20:42.333Z,56.03
2022-11-13T17:23:15.588Z,49.03
2022-11-13T17:25:44.801Z,52.80
2022-11-13T17:28:13.934Z,55.40
2022-11-13T17:30:42.748Z,51.73
2022-11-13T17:33:13.309Z,53.40
2022-11-13T17:35:42.728Z,53.90
2022-11-13T17:38:15.686Z,51.40
2022-11-13T17:40:44.734Z,55.13
2022-11-13T17:43:13.547Z,52.70
2022-11-13T17:45:42.728Z,51.40
2022-11-13T17:48:13.698Z,50.57
2022-11-13T17:50:42.493Z,51.23
2022-11-13T17:53:11.570Z,51.00
2022-11-13T17:55:41.740Z,53.23
2022-11-13T17:58:11.065Z,50.77
2022-11-13T18:00:40.452Z,52.93
2022-11-13T18:03:09.290Z,51.00
2022-11-13T18:05:40.940Z,53.67
2022-11-13T18:08:12.699Z,54.07
2022-11-13T18:10:42.942Z,49.33
2022-11-13T18:13:12.868Z,51.63
2022-11-13T18:15:44.212Z,52.27
2022-11-13T18:18:13.828Z,54.67
2022-11-13T18:20:44.618Z,56.73
2022-11-13T18:23:13.882Z,57.83
2022-11-13T18:25:43.655Z,53.87
2022-11-13T18:28:12.532Z,53.27
2022-11-13T18:30:41.861Z,54.97
2022-11-13T18:33:11.616Z,52.10
2022-11-13T18:35:41.380Z,51.90
2022-11-13T18:38:12.105Z,53.60
2022-11-13T18:40:42.379Z,55.57
2022-11-13T18:43:11.604Z,53.50
2022-11-13T18:45:43.725Z,51.67
2022-11-13T18:48:13.490Z,51.60
2022-11-13T18:50:44.282Z,55.10
2022-11-13T18:53:15.090Z,54.37
2022-11-13T18:55:43.939Z,57.23
2022-11-13T18:58:13.287Z,57.47
2022-11-13T19:00:42.629Z,60.27
2022-11-13T19:03:12.252Z,55.23
2022-11-13T19:05:46.217Z,58.87
2022-11-13T19:08:17.177Z,56.57
2022-11-13T19:10:46.408Z,58.00
2022-11-13T19:13:16.985Z,54.57
2022-11-13T19:15:47.664Z,58.50
2022-11-13T19:18:16.977Z,52.70
2022-11-13T19:20:46.275Z,52.83
2022-11-13T19:23:17.413Z,53.30
2022-11-13T19:25:49.306Z,51.70
2022-11-13T19:28:18.601Z,52.13
2022-11-13T19:30:49.096Z,52.53
2022-11-13T19:33:18.410Z,54.23
2022-11-13T19:35:47.655Z,52.03
2022-11-13T19:38:18.814Z,52.10
2022-11-13T19:40:51.176Z,53.03
2022-11-13T19:43:20.781Z,49.13
2022-11-13T19:45:50.047Z,51.50
2022-11-13T19:48:19.256Z,52.67
2022-11-13T19:50:49.044Z,51.90
2022-11-13T19:53:22.916Z,54.47
2022-11-13T19:55:56.981Z,50.90
2022-11-13T19:58:26.849Z,52.50
2022-11-13T20:00:57.371Z,67.67
2022-11-13T20:03:29.042Z,57.03
2022-11-13T20:05:59.977Z,67.00
2022-11-13T20:08:31.331Z,72.00
2022-11-13T20:11:04.871Z,67.80
2022-11-13T20:13:37.442Z,69.90
2022-11-13T20:16:08.542Z,68.63
2022-11-13T20:18:38.624Z,66.17
2022-11-13T20:21:11.471Z,66.67
2022-11-13T20:23:43.094Z,60.83
2022-11-13T20:26:14.453Z,59.80
2022-11-13T20:28:43.275Z,58.50
2022-11-13T20:31:20.269Z,62.57
2022-11-13T20:33:50.295Z,57.13
2022-11-13T20:36:20.556Z,57.50
2022-11-13T20:38:54.094Z,58.00
2022-11-13T20:41:25.931Z,56.93
2022-11-13T20:43:56.911Z,60.50
2022-11-13T20:46:26.172Z,60.37
2022-11-13T20:48:55.416Z,60.27
2022-11-13T20:51:26.742Z,57.57
2022-11-13T20:53:58.408Z,63.97
2022-11-13T20:56:28.919Z,62.23
2022-11-13T20:58:58.731Z,58.93
2022-11-13T21:01:28.137Z,57.37
2022-11-13T21:03:59.751Z,60.67
2022-11-13T21:06:29.045Z,58.10
2022-11-13T21:08:59.592Z,56.83
2022-11-13T21:11:30.911Z,59.90
2022-11-13T21:14:00.971Z,57.87
2022-11-13T21:16:29.799Z,56.90
2022-11-13T21:18:59.711Z,56.73
2022-11-13T21:21:29.974Z,51.73
2022-11-13T21:24:01.828Z,53.93
2022-11-13T21:26:31.100Z,56.23
2022-11-13T21:29:01.391Z,55.80
2022-11-13T21:31:30.365Z,53.00
2022-11-13T21:33:59.892Z,54.30
2022-11-13T21:36:30.449Z,52.70
2022-11-13T21:39:01.090Z,52.90
2022-11-13T21:41:30.064Z,50.10
2022-11-13T21:44:00.977Z,48.83
2022-11-13T21:46:31.951Z,48.03
2022-11-13T21:49:02.668Z,52.23
2022-11-13T21:51:32.093Z,49.97
2022-11-13T21:54:02.873Z,46.20
2022-11-13T21:56:33.671Z,42.90
2022-11-13T21:59:02.439Z,44.73
2022-11-13T22:01:37.782Z,42.23
2022-11-13T22:04:07.327Z,42.03
2022-11-13T22:06:37.474Z,42.57
2022-11-13T22:09:14.400Z,44.73
2022-11-13T22:11:43.615Z,45.00
2022-11-13T22:14:12.385Z,44.97
2022-11-13T22:16:43.395Z,44.07
2022-11-13T22:19:13.748Z,45.13
2022-11-13T22:21:43.517Z,46.33
2022-11-13T22:24:15.306Z,44.33
2022-11-13T22:26:47.980Z,43.80
2022-11-13T22:29:16.774Z,46.73
2022-11-13T22:31:45.651Z,46.17
2022-11-13T22:34:14.359Z,45.40
2022-11-13T22:36:43.096Z,46.97
2022-11-13T22:39:13.426Z,45.43
2022-11-13T22:41:42.239Z,47.17
2022-11-13T22:44:14.486Z,45.03
2022-11-13T22:46:43.275Z,44.47
2022-11-13T22:49:13.925Z,45.57
2022-11-13T22:51:44.382Z,47.27
2022-11-13T22:54:14.741Z,49.00
2022-11-13T22:56:43.798Z,44.90
2022-11-13T22:59:15.025Z,44.53
2022-11-13T23:01:46.322Z,47.20
2022-11-13T23:04:15.530Z,47.13
2022-11-13T23:06:44.320Z,46.27
2022-11-13T23:09:14.503Z,51.57
2022-11-13T23:11:44.172Z,53.00
2022-11-13T23:14:15.980Z,47.47
2022-11-13T23:16:44.868Z,48.20
2022-11-13T23:19:13.590Z,46.30
2022-11-13T23:21:42.386Z,50.70
2022-11-13T23:24:13.647Z,44.87
2022-11-13T23:26:42.360Z,46.20
2022-11-13T23:29:12.538Z,47.90
2022-11-13T23:31:41.239Z,48.13
2022-11-13T23:34:10.136Z,42.30
2022-11-13T23:36:39.006Z,43.90
2022-11-13T23:39:07.747Z,43.80
2022-11-13T23:41:37.862Z,45.57
2022-11-13T23:44:09.608Z,43.10
2022-11-13T23:46:38.612Z,47.23
2022-11-13T23:49:07.543Z,40.07
2022-11-13T23:51:36.323Z,45.57
2022-11-13T23:54:05.044Z,44.40
2022-11-13T23:56:33.748Z,45.10
2022-11-13T23:59:03.883Z,45.90
